Time;durP1;ratioP1;P1;durP2;ratioP2;P2;SDS_P1;SDS_P2;PMS_P1;PMS_P2;Temp;Humidity;BMP_temperature;BMP_pressure;BME280_temperature;BME280_humidity;BME280_pressure;Samples;Min_cycle;Max_cycle;Signal;HPM_P1;HPM_P2
2022/11/22 00:02:51;;;;;;;2.63;1.90;;;;;;;;;;4992384;28;20982;-90
2022/11/22 00:05:56;;;;;;;3.90;1.77;;;;;;;;;;4981626;28;20178;-90
2022/11/22 00:09:00;;;;;;;3.00;1.90;;;;;;;;;;4992330;28;21071;-92
2022/11/22 00:12:04;;;;;;;4.07;1.77;;;;;;;;;;5003885;28;20541;-91
2022/11/22 00:15:09;;;;;;;2.90;1.87;;;;;;;;;;4980805;28;20544;-91
2022/11/22 00:18:13;;;;;;;3.57;1.90;;;;;;;;;;4998386;28;20627;-91
2022/11/22 00:21:17;;;;;;;3.40;1.63;;;;;;;;;;5011799;28;21180;-91
2022/11/22 00:24:22;;;;;;;3.00;1.80;;;;;;;;;;5015070;28;20543;-91
2022/11/22 00:27:26;;;;;;;4.80;2.00;;;;;;;;;;4994486;28;20200;-89
2022/11/22 00:30:30;;;;;;;2.50;1.70;;;;;;;;;;5006831;28;20217;-91
2022/11/22 00:33:34;;;;;;;4.57;2.10;;;;;;;;;;4995369;28;20173;-89
2022/11/22 00:36:38;;;;;;;4.17;2.20;;;;;;;;;;4996366;28;20181;-91
2022/11/22 00:39:43;;;;;;;3.97;1.70;;;;;;;;;;4996263;28;20952;-89
2022/11/22 00:42:47;;;;;;;3.37;2.03;;;;;;;;;;5007697;28;20189;-91
2022/11/22 00:45:51;;;;;;;2.27;1.60;;;;;;;;;;5018448;28;20186;-91
2022/11/22 00:48:55;;;;;;;3.63;2.07;;;;;;;;;;4995827;28;20181;-91
2022/11/22 00:52:00;;;;;;;4.77;2.00;;;;;;;;;;4985114;28;20189;-89
2022/11/22 00:55:04;;;;;;;4.03;1.90;;;;;;;;;;5007441;28;20544;-89
2022/11/22 00:58:08;;;;;;;2.70;1.97;;;;;;;;;;4997923;28;20205;-91
2022/11/22 01:01:13;;;;;;;2.93;2.10;;;;;;;;;;5007577;28;20217;-87
2022/11/22 01:04:17;;;;;;;2.67;2.00;;;;;;;;;;5006804;28;20613;-87
2022/11/22 01:07:21;;;;;;;8.80;2.17;;;;;;;;;;4995128;28;20205;-88
2022/11/22 01:10:25;;;;;;;5.33;2.57;;;;;;;;;;5005878;28;20213;-87
2022/11/22 01:13:30;;;;;;;4.30;2.03;;;;;;;;;;5006666;28;20189;-87
2022/11/22 01:16:34;;;;;;;2.97;2.20;;;;;;;;;;5005801;28;20183;-88
2022/11/22 01:19:38;;;;;;;3.37;2.40;;;;;;;;;;5006012;28;20595;-85
2022/11/22 01:22:42;;;;;;;4.03;2.20;;;;;;;;;;5006299;28;20190;-87
2022/11/22 01:25:46;;;;;;;2.10;1.80;;;;;;;;;;4995260;28;20185;-87
2022/11/22 01:28:50;;;;;;;4.43;2.80;;;;;;;;;;4994233;28;20518;-87
2022/11/22 01:31:54;;;;;;;3.10;2.17;;;;;;;;;;5005905;28;20556;-87
2022/11/22 01:34:58;;;;;;;4.37;2.47;;;;;;;;;;5004431;28;20201;-87
2022/11/22 01:38:03;;;;;;;5.33;2.13;;;;;;;;;;4994147;28;20205;-86
2022/11/22 01:41:06;;;;;;;2.43;1.97;;;;;;;;;;4994008;28;20208;-86
2022/11/22 01:44:20;;;;;;;3.67;2.27;;;;;;;;;;5005724;28;20553;-87
2022/11/22 01:47:25;;;;;;;3.13;2.53;;;;;;;;;;4994721;28;20182;-87
2022/11/22 01:50:32;;;;;;;2.87;2.27;;;;;;;;;;5005292;28;20225;-86
2022/11/22 01:53:38;;;;;;;3.20;2.47;;;;;;;;;;4994455;28;20178;-86
2022/11/22 01:56:45;;;;;;;2.60;2.20;;;;;;;;;;4994075;28;20186;-86
2022/11/22 01:59:55;;;;;;;4.00;2.60;;;;;;;;;;4994370;28;20206;-86
2022/11/22 02:03:03;;;;;;;3.73;2.33;;;;;;;;;;4993553;28;20205;-86
2022/11/22 02:06:07;;;;;;;3.43;2.73;;;;;;;;;;5006181;28;20189;-86
2022/11/22 02:09:11;;;;;;;6.17;2.67;;;;;;;;;;5003962;28;20538;-86
2022/11/22 02:12:18;;;;;;;4.87;2.80;;;;;;;;;;5004935;28;20537;-86
2022/11/22 02:15:22;;;;;;;4.43;2.90;;;;;;;;;;4997593;28;20193;-86
2022/11/22 02:18:27;;;;;;;3.40;2.30;;;;;;;;;;5024461;28;20209;-86
2022/11/22 02:21:31;;;;;;;3.77;3.17;;;;;;;;;;5001339;28;20208;-86
2022/11/22 02:24:45;;;;;;;3.90;3.03;;;;;;;;;;5013025;28;20185;-86
2022/11/22 02:27:49;;;;;;;5.50;3.00;;;;;;;;;;5001629;28;20186;-86
2022/11/22 02:30:54;;;;;;;4.83;3.20;;;;;;;;;;5001774;28;20220;-86
2022/11/22 02:33:58;;;;;;;3.83;3.00;;;;;;;;;;5002017;28;20189;-86
2022/11/22 02:37:02;;;;;;;3.53;2.87;;;;;;;;;;5001907;28;20507;-86
2022/11/22 02:40:12;;;;;;;3.67;3.10;;;;;;;;;;5024987;28;20599;-86
2022/11/22 02:43:19;;;;;;;3.53;2.77;;;;;;;;;;5013422;28;20181;-86
2022/11/22 02:46:23;;;;;;;4.10;2.87;;;;;;;;;;5011774;28;20181;-86
2022/11/22 02:49:27;;;;;;;4.27;2.87;;;;;;;;;;5013546;28;20173;-87
2022/11/22 02:52:31;;;;;;;3.50;2.70;;;;;;;;;;5013009;28;20185;-87
2022/11/22 02:55:36;;;;;;;5.43;3.60;;;;;;;;;;5002043;28;20177;-86
2022/11/22 02:58:39;;;;;;;3.93;2.80;;;;;;;;;;5024107;28;20212;-86
2022/11/22 03:01:45;;;;;;;4.43;2.90;;;;;;;;;;5001056;28;20201;-86
2022/11/22 03:04:49;;;;;;;4.10;3.13;;;;;;;;;;5001731;28;20535;-86
2022/11/22 03:07:53;;;;;;;4.30;3.43;;;;;;;;;;5001424;28;20197;-86
2022/11/22 03:10:58;;;;;;;4.40;3.00;;;;;;;;;;5000851;28;20220;-86
2022/11/22 03:14:02;;;;;;;4.13;3.10;;;;;;;;;;5001405;28;20192;-86
2022/11/22 03:17:06;;;;;;;3.63;3.10;;;;;;;;;;5001885;28;20176;-86
2022/11/22 03:20:10;;;;;;;4.23;3.00;;;;;;;;;;5001173;28;20680;-86
2022/11/22 03:23:15;;;;;;;4.30;3.13;;;;;;;;;;5012717;28;20184;-86
2022/11/22 03:26:19;;;;;;;5.47;3.30;;;;;;;;;;5000805;28;20181;-86
2022/11/22 03:29:23;;;;;;;4.43;3.07;;;;;;;;;;5000796;28;20169;-87
2022/11/22 03:32:27;;;;;;;4.10;3.33;;;;;;;;;;5034358;28;20185;-86
2022/11/22 03:35:31;;;;;;;4.63;3.60;;;;;;;;;;5000329;28;20548;-86
2022/11/22 03:38:36;;;;;;;3.30;3.00;;;;;;;;;;5011578;28;20205;-87
2022/11/22 03:41:40;;;;;;;3.87;3.20;;;;;;;;;;5000014;28;20217;-86
2022/11/22 03:44:43;;;;;;;3.20;2.80;;;;;;;;;;5000220;28;20198;-87
2022/11/22 03:47:48;;;;;;;4.77;3.43;;;;;;;;;;5011892;28;20180;-87
2022/11/22 03:50:52;;;;;;;4.07;2.90;;;;;;;;;;5011197;28;20212;-86
2022/11/22 03:53:56;;;;;;;3.83;2.90;;;;;;;;;;4999956;28;20180;-86
2022/11/22 03:57:00;;;;;;;3.87;2.90;;;;;;;;;;5000059;28;20197;-87
2022/11/22 04:00:05;;;;;;;5.07;2.60;;;;;;;;;;5034311;28;20703;-86
2022/11/22 04:03:16;;;;;;;4.90;2.80;;;;;;;;;;5023145;28;20204;-87
2022/11/22 04:06:20;;;;;;;4.13;2.70;;;;;;;;;;5000105;28;20196;-86
2022/11/22 04:09:24;;;;;;;3.17;2.87;;;;;;;;;;5011230;28;20177;-87
2022/11/22 04:12:29;;;;;;;5.17;2.60;;;;;;;;;;4999872;28;20632;-86
2022/11/22 04:15:35;;;;;;;4.07;2.70;;;;;;;;;;5010716;28;20196;-87
2022/11/22 04:18:39;;;;;;;5.13;2.70;;;;;;;;;;4999892;28;20208;-87
2022/11/22 04:21:43;;;;;;;4.17;2.60;;;;;;;;;;5011854;28;20212;-87
2022/11/22 04:28:11;;;;;;;3.00;2.63;;;;;;;;;;5011359;28;20547;-87
2022/11/22 04:34:38;;;;;;;4.53;2.73;;;;;;;;;;5011044;28;20180;-87
2022/11/22 04:37:48;;;;;;;3.37;2.77;;;;;;;;;;4999220;28;20200;-87
2022/11/22 04:40:52;;;;;;;3.47;2.77;;;;;;;;;;5010176;28;20213;-86
2022/11/22 04:54:05;;;;;;;4.20;2.97;;;;;;;;;;5010379;28;20181;-86
2022/11/22 04:57:09;;;;;;;2.93;2.50;;;;;;;;;;4999369;28;20687;-86
2022/11/22 05:00:14;;;;;;;3.47;2.50;;;;;;;;;;5021458;28;20228;-86
2022/11/22 05:03:18;;;;;;;3.77;2.27;;;;;;;;;;5021348;28;20204;-86
2022/11/22 05:06:22;;;;;;;2.70;2.50;;;;;;;;;;5010446;28;20540;-86
2022/11/22 05:09:26;;;;;;;3.47;2.93;;;;;;;;;;5010231;28;20197;-86
2022/11/22 05:12:30;;;;;;;3.90;3.10;;;;;;;;;;5003124;28;20208;-86
2022/11/22 05:15:34;;;;;;;4.77;2.83;;;;;;;;;;5002845;28;20200;-85
2022/11/22 05:18:39;;;;;;;4.77;3.13;;;;;;;;;;4983297;28;20213;-85
2022/11/22 05:21:43;;;;;;;3.83;2.83;;;;;;;;;;4995273;28;20205;-86
2022/11/22 05:24:48;;;;;;;3.90;2.73;;;;;;;;;;4983657;28;20186;-86
2022/11/22 05:27:53;;;;;;;5.00;2.90;;;;;;;;;;4994614;28;20181;-86
2022/11/22 05:30:58;;;;;;;3.83;2.60;;;;;;;;;;4983551;28;20209;-86
2022/11/22 05:34:02;;;;;;;2.90;2.60;;;;;;;;;;4983537;28;20177;-86
2022/11/22 05:37:07;;;;;;;3.17;2.40;;;;;;;;;;4994853;28;20532;-86
2022/11/22 05:40:11;;;;;;;2.17;1.97;;;;;;;;;;5005718;28;20233;-86
2022/11/22 05:43:15;;;;;;;5.17;2.50;;;;;;;;;;4983552;28;20177;-86
2022/11/22 05:46:22;;;;;;;5.03;2.50;;;;;;;;;;4994607;28;20201;-86
2022/11/22 05:49:26;;;;;;;2.80;2.20;;;;;;;;;;4994503;28;20178;-86
2022/11/22 05:52:30;;;;;;;3.43;2.63;;;;;;;;;;4994287;28;20181;-86
2022/11/22 05:55:34;;;;;;;3.63;2.70;;;;;;;;;;4983026;28;20633;-86
2022/11/22 05:58:39;;;;;;;5.40;2.47;;;;;;;;;;4982875;28;20181;-85
2022/11/22 06:01:43;;;;;;;3.33;2.33;;;;;;;;;;4993408;28;20213;-85
2022/11/22 06:04:47;;;;;;;3.27;2.40;;;;;;;;;;4983204;28;20178;-84
2022/11/22 06:07:51;;;;;;;3.93;2.43;;;;;;;;;;4993260;28;20186;-85
2022/11/22 06:11:03;;;;;;;3.60;2.40;;;;;;;;;;4993792;28;20213;-85
2022/11/22 06:14:07;;;;;;;3.20;2.37;;;;;;;;;;5004609;28;20205;-85
2022/11/22 06:17:11;;;;;;;3.70;2.70;;;;;;;;;;4993107;28;20178;-85
2022/11/22 06:20:16;;;;;;;4.07;2.30;;;;;;;;;;4982019;28;20233;-86
2022/11/22 06:23:19;;;;;;;3.53;2.90;;;;;;;;;;4981461;28;20201;-85
2022/11/22 06:26:24;;;;;;;5.27;4.03;;;;;;;;;;4982347;28;20189;-85
2022/11/22 06:29:28;;;;;;;4.60;3.20;;;;;;;;;;4993034;28;20181;-85
2022/11/22 06:32:34;;;;;;;3.27;2.87;;;;;;;;;;4993511;28;20185;-85
2022/11/22 06:35:38;;;;;;;3.93;2.73;;;;;;;;;;4993272;28;20186;-86
2022/11/22 06:38:43;;;;;;;3.87;2.43;;;;;;;;;;4981714;28;20209;-86
2022/11/22 06:41:47;;;;;;;4.43;2.90;;;;;;;;;;4993046;28;20624;-85
2022/11/22 06:44:51;;;;;;;5.43;3.33;;;;;;;;;;4981680;28;20189;-85
2022/11/22 06:47:57;;;;;;;5.50;3.80;;;;;;;;;;4981045;28;20197;-86
2022/11/22 06:51:10;;;;;;;6.70;3.83;;;;;;;;;;4989282;28;20212;-85
2022/11/22 06:54:14;;;;;;;4.87;3.80;;;;;;;;;;5000862;28;20632;-86
2022/11/22 06:57:21;;;;;;;8.20;5.43;;;;;;;;;;5012323;28;20192;-85
2022/11/22 07:00:24;;;;;;;19.93;11.47;;;;;;;;;;5000837;28;20228;-85
2022/11/22 07:03:29;;;;;;;14.90;9.03;;;;;;;;;;5000428;28;20204;-85
2022/11/22 07:06:37;;;;;;;17.10;9.97;;;;;;;;;;5023391;28;20544;-85
2022/11/22 07:09:41;;;;;;;17.53;10.10;;;;;;;;;;4999945;28;20213;-85
2022/11/22 07:12:45;;;;;;;17.73;11.57;;;;;;;;;;5000659;28;20177;-85
2022/11/22 07:15:54;;;;;;;21.17;12.20;;;;;;;;;;5022786;28;20180;-85
2022/11/22 07:18:59;;;;;;;12.67;8.93;;;;;;;;;;5012396;28;20184;-85
2022/11/22 07:22:03;;;;;;;8.20;5.57;;;;;;;;;;5011641;28;20180;-85
2022/11/22 07:25:09;;;;;;;7.40;5.27;;;;;;;;;;5000294;28;20656;-84
2022/11/22 07:28:14;;;;;;;7.40;4.50;;;;;;;;;;5000559;28;20517;-85
2022/11/22 07:31:18;;;;;;;7.03;4.57;;;;;;;;;;5011455;28;20212;-85
2022/11/22 07:34:23;;;;;;;4.60;3.50;;;;;;;;;;5011308;28;20196;-85
2022/11/22 07:37:29;;;;;;;7.30;3.93;;;;;;;;;;5000759;28;20181;-85
2022/11/22 07:40:34;;;;;;;3.60;3.17;;;;;;;;;;5000401;28;20228;-85
2022/11/22 07:43:39;;;;;;;3.77;3.00;;;;;;;;;;5001073;28;20185;-85
2022/11/22 07:46:43;;;;;;;6.77;4.07;;;;;;;;;;5012380;28;20181;-85
2022/11/22 07:49:47;;;;;;;4.43;3.17;;;;;;;;;;5002197;28;20556;-85
2022/11/22 07:52:58;;;;;;;6.63;5.43;;;;;;;;;;5004339;28;20181;-85
2022/11/22 07:56:04;;;;;;;13.93;9.23;;;;;;;;;;5013399;28;20192;-85
2022/11/22 07:59:08;;;;;;;10.23;9.13;;;;;;;;;;5012353;28;20177;-85
2022/11/22 08:02:12;;;;;;;8.33;6.90;;;;;;;;;;5012009;28;20204;-85
2022/11/22 08:05:17;;;;;;;9.33;6.73;;;;;;;;;;5000989;28;20185;-85
2022/11/22 08:08:21;;;;;;;7.20;5.40;;;;;;;;;;5000311;28;20214;-85
2022/11/22 08:11:25;;;;;;;9.27;6.77;;;;;;;;;;5011082;28;20212;-85
2022/11/22 08:14:29;;;;;;;9.50;6.23;;;;;;;;;;5011307;28;20196;-85
2022/11/22 08:17:33;;;;;;;8.00;5.47;;;;;;;;;;5000321;28;20525;-85
2022/11/22 08:20:37;;;;;;;5.30;4.17;;;;;;;;;;4999719;28;20228;-85
2022/11/22 08:23:42;;;;;;;5.93;3.90;;;;;;;;;;5000189;28;20181;-85
2022/11/22 08:26:46;;;;;;;5.23;3.67;;;;;;;;;;4999739;28;20181;-85
2022/11/22 08:29:50;;;;;;;4.30;3.30;;;;;;;;;;5010683;28;20432;-85
2022/11/22 08:32:55;;;;;;;4.10;3.40;;;;;;;;;;5010820;28;20185;-85
2022/11/22 08:36:00;;;;;;;5.20;3.80;;;;;;;;;;5010690;28;20200;-85
2022/11/22 08:39:04;;;;;;;5.87;3.47;;;;;;;;;;4999720;28;20180;-85
2022/11/22 08:42:48;;;;;;;6.37;3.43;;;;;;;;;;5002373;28;20173;-85
2022/11/22 08:46:06;;;;;;;5.70;3.87;;;;;;;;;;5005061;28;20177;-86
2022/11/22 08:49:10;;;;;;;5.83;3.77;;;;;;;;;;5003472;28;20184;-85
2022/11/22 08:52:14;;;;;;;5.63;4.20;;;;;;;;;;5003423;28;20173;-85
2022/11/22 08:55:18;;;;;;;8.63;3.70;;;;;;;;;;5026482;28;20176;-85
2022/11/22 08:58:22;;;;;;;5.53;4.30;;;;;;;;;;5005168;28;20181;-86
2022/11/22 09:01:27;;;;;;;6.47;3.93;;;;;;;;;;5014234;28;20212;-86
2022/11/22 09:04:31;;;;;;;5.67;3.90;;;;;;;;;;5014245;28;20181;-85
2022/11/22 09:07:36;;;;;;;7.10;4.47;;;;;;;;;;5002459;28;20197;-85
2022/11/22 09:10:39;;;;;;;5.60;4.03;;;;;;;;;;5002795;28;20212;-85
2022/11/22 09:13:45;;;;;;;6.43;3.83;;;;;;;;;;5002711;28;20176;-86
2022/11/22 09:16:49;;;;;;;7.33;3.67;;;;;;;;;;5002881;28;20185;-85
2022/11/22 09:19:53;;;;;;;7.07;4.30;;;;;;;;;;5013738;28;20228;-86
2022/11/22 09:22:59;;;;;;;6.57;4.30;;;;;;;;;;5002717;28;20551;-85
2022/11/22 09:26:06;;;;;;;5.10;4.20;;;;;;;;;;5006368;28;20559;-85
2022/11/22 09:29:10;;;;;;;4.90;3.80;;;;;;;;;;5005263;28;20177;-85
2022/11/22 09:32:14;;;;;;;19.47;15.60;;;;;;;;;;5004684;28;20177;-86
2022/11/22 09:35:19;;;;;;;13.20;7.67;;;;;;;;;;5016835;28;20177;-86
2022/11/22 09:38:22;;;;;;;8.63;5.40;;;;;;;;;;5016058;28;20185;-85
2022/11/22 09:42:04;;;;;;;7.57;3.83;;;;;;;;;;5004883;28;20225;-86
2022/11/22 09:45:26;;;;;;;6.47;3.73;;;;;;;;;;5004940;28;20179;-86
2022/11/22 09:49:20;;;;;;;5.50;4.17;;;;;;;;;;5021007;28;20193;-85
2022/11/22 09:52:32;;;;;;;6.67;4.17;;;;;;;;;;5005497;28;20218;-85
2022/11/22 09:55:48;;;;;;;7.70;4.80;;;;;;;;;;4974576;28;20186;-85
2022/11/22 09:59:09;;;;;;;5.83;4.97;;;;;;;;;;5011349;28;20181;-85
2022/11/22 10:02:22;;;;;;;7.50;4.87;;;;;;;;;;5032946;28;20205;-86
2022/11/22 10:05:37;;;;;;;7.07;4.67;;;;;;;;;;5021094;28;20181;-86
2022/11/22 10:09:02;;;;;;;6.87;4.80;;;;;;;;;;5009734;28;20644;-86
2022/11/22 10:12:19;;;;;;;6.23;4.33;;;;;;;;;;5020756;28;20181;-86
2022/11/22 10:15:53;;;;;;;5.00;3.93;;;;;;;;;;5009605;28;20185;-86
2022/11/22 10:19:22;;;;;;;5.53;3.93;;;;;;;;;;5008835;28;20188;-86
2022/11/22 10:22:29;;;;;;;4.93;3.57;;;;;;;;;;5019352;28;20632;-85
2022/11/22 10:25:38;;;;;;;5.27;3.57;;;;;;;;;;5008092;28;20184;-86
2022/11/22 10:29:18;;;;;;;9.77;4.80;;;;;;;;;;5007221;28;20181;-85
2022/11/22 10:32:46;;;;;;;10.50;7.23;;;;;;;;;;5006827;28;20185;-86
2022/11/22 10:36:08;;;;;;;14.30;12.40;;;;;;;;;;5006218;28;20181;-85
2022/11/22 10:39:22;;;;;;;9.33;5.60;;;;;;;;;;5006011;28;20185;-85
2022/11/22 10:42:50;;;;;;;5.73;3.43;;;;;;;;;;5004756;28;20177;-86
2022/11/22 10:46:07;;;;;;;8.13;6.23;;;;;;;;;;5004331;28;20185;-86
2022/11/22 10:49:36;;;;;;;8.23;4.17;;;;;;;;;;5003791;28;20628;-85
2022/11/22 10:52:46;;;;;;;4.43;2.90;;;;;;;;;;5003522;28;20180;-86
2022/11/22 10:55:59;;;;;;;7.20;3.47;;;;;;;;;;5002911;28;20181;-86
2022/11/22 10:59:25;;;;;;;4.27;3.20;;;;;;;;;;5013803;28;20185;-86
2022/11/22 11:02:45;;;;;;;12.17;4.47;;;;;;;;;;5001907;28;20204;-86
2022/11/22 11:06:01;;;;;;;9.63;5.37;;;;;;;;;;5012990;28;20177;-86
2022/11/22 11:09:11;;;;;;;23.50;14.50;;;;;;;;;;5011972;28;20181;-85
2022/11/22 11:12:41;;;;;;;18.90;12.60;;;;;;;;;;5012339;28;20193;-86
2022/11/22 11:15:48;;;;;;;8.70;3.23;;;;;;;;;;5001349;28;20188;-85
2022/11/22 11:19:07;;;;;;;7.70;3.27;;;;;;;;;;5001292;28;20184;-85
2022/11/22 11:22:21;;;;;;;11.07;3.10;;;;;;;;;;5012341;28;20213;-87
2022/11/22 11:25:32;;;;;;;6.23;2.83;;;;;;;;;;5012210;28;20177;-85
2022/11/22 11:28:36;;;;;;;4.60;3.20;;;;;;;;;;5012152;28;20196;-85
2022/11/22 11:32:04;;;;;;;6.73;2.63;;;;;;;;;;5000537;28;20216;-85
2022/11/22 11:35:13;;;;;;;5.13;2.57;;;;;;;;;;5000769;28;20180;-85
2022/11/22 11:38:28;;;;;;;6.77;2.80;;;;;;;;;;5001665;28;20185;-85
2022/11/22 11:41:33;;;;;;;6.43;2.67;;;;;;;;;;5013027;28;20228;-85
2022/11/22 11:44:37;;;;;;;7.30;2.20;;;;;;;;;;5001391;28;20177;-85
2022/11/22 11:47:41;;;;;;;5.83;2.40;;;;;;;;;;5001213;28;20177;-85
2022/11/22 11:50:46;;;;;;;5.03;2.30;;;;;;;;;;5000781;28;20216;-85
2022/11/22 11:54:02;;;;;;;4.07;1.90;;;;;;;;;;5000092;28;20192;-85
2022/11/22 11:57:29;;;;;;;7.03;2.20;;;;;;;;;;5000104;28;20185;-85
2022/11/22 12:00:38;;;;;;;5.53;2.20;;;;;;;;;;5000327;28;20216;-85
2022/11/22 12:03:50;;;;;;;4.43;2.20;;;;;;;;;;5011300;28;20565;-85
2022/11/22 12:06:58;;;;;;;5.33;2.10;;;;;;;;;;5011210;28;20615;-85
2022/11/22 12:10:41;;;;;;;5.23;2.27;;;;;;;;;;4980611;28;20711;-85
2022/11/22 12:13:53;;;;;;;7.00;1.93;;;;;;;;;;4980438;28;20174;-85
2022/11/22 12:17:04;;;;;;;4.40;1.80;;;;;;;;;;4991473;28;20181;-85
2022/11/22 12:20:20;;;;;;;5.53;1.80;;;;;;;;;;4991391;28;20217;-85
2022/11/22 12:23:31;;;;;;;6.30;1.80;;;;;;;;;;4980100;28;20182;-85
2022/11/22 12:26:35;;;;;;;6.00;2.07;;;;;;;;;;4979912;28;20185;-85
2022/11/22 12:29:42;;;;;;;9.03;3.20;;;;;;;;;;4990985;28;20765;-85
2022/11/22 12:33:07;;;;;;;7.47;3.10;;;;;;;;;;4980510;28;20178;-85
2022/11/22 12:36:20;;;;;;;6.87;1.87;;;;;;;;;;4980387;28;20629;-85
2022/11/22 12:39:27;;;;;;;7.27;3.13;;;;;;;;;;4979889;28;20189;-86
2022/11/22 12:42:40;;;;;;;5.67;1.83;;;;;;;;;;4991270;28;20665;-85
2022/11/22 12:45:52;;;;;;;6.93;2.23;;;;;;;;;;4980425;28;20182;-85
2022/11/22 12:49:01;;;;;;;6.00;2.20;;;;;;;;;;4991231;28;20193;-85
2022/11/22 12:52:14;;;;;;;4.27;1.70;;;;;;;;;;4980094;28;20198;-85
2022/11/22 12:55:22;;;;;;;7.07;3.87;;;;;;;;;;4990824;28;20522;-85
2022/11/22 12:58:46;;;;;;;6.27;4.77;;;;;;;;;;4979853;28;20618;-85
2022/11/22 13:02:04;;;;;;;8.87;3.20;;;;;;;;;;4990919;28;20205;-84
2022/11/22 13:05:19;;;;;;;8.80;2.00;;;;;;;;;;4991997;28;20522;-87
2022/11/22 13:08:47;;;;;;;6.90;1.87;;;;;;;;;;4980082;28;20185;-88
2022/11/22 13:11:58;;;;;;;6.07;1.83;;;;;;;;;;4990893;28;20181;-88
2022/11/22 13:15:03;;;;;;;8.63;1.60;;;;;;;;;;4979804;28;20186;-88
2022/11/22 13:18:09;;;;;;;7.07;2.03;;;;;;;;;;4979838;28;20181;-88
2022/11/22 13:21:39;;;;;;;5.77;2.07;;;;;;;;;;4979626;28;20241;-88
2022/11/22 13:25:20;;;;;;;5.10;1.20;;;;;;;;;;4979394;28;20189;-88
2022/11/22 13:28:31;;;;;;;6.23;1.83;;;;;;;;;;5001479;28;20201;-88
2022/11/22 13:31:35;;;;;;;6.53;2.73;;;;;;;;;;4981945;28;20214;-88
2022/11/22 13:34:58;;;;;;;13.27;5.70;;;;;;;;;;4994716;28;20201;-88
2022/11/22 13:38:13;;;;;;;10.90;3.67;;;;;;;;;;4994966;28;20190;-88
2022/11/22 13:41:41;;;;;;;6.60;1.90;;;;;;;;;;4994668;28;20221;-88
2022/11/22 13:44:55;;;;;;;10.50;2.40;;;;;;;;;;4994704;28;20185;-88
2022/11/22 13:48:00;;;;;;;7.63;2.63;;;;;;;;;;4994514;28;20178;-88
2022/11/22 13:51:10;;;;;;;9.87;3.53;;;;;;;;;;5005604;28;20213;-88
2022/11/22 13:54:39;;;;;;;11.67;4.17;;;;;;;;;;4983033;28;20190;-88
2022/11/22 13:57:43;;;;;;;6.30;2.60;;;;;;;;;;4983477;28;20173;-87
2022/11/22 14:00:48;;;;;;;7.43;2.00;;;;;;;;;;4982767;28;20700;-88
2022/11/22 14:03:52;;;;;;;4.20;2.10;;;;;;;;;;4994244;28;20538;-88
2022/11/22 14:07:26;;;;;;;5.17;1.90;;;;;;;;;;5000994;28;20674;-88
2022/11/22 14:10:48;;;;;;;5.87;2.10;;;;;;;;;;5024535;28;20212;-88
2022/11/22 14:14:23;;;;;;;4.73;2.30;;;;;;;;;;5002585;28;20177;-88
2022/11/22 14:17:38;;;;;;;7.80;1.90;;;;;;;;;;4993636;28;20197;-88
2022/11/22 14:21:02;;;;;;;5.53;1.90;;;;;;;;;;5002128;28;20221;-88
2022/11/22 14:24:31;;;;;;;4.60;1.70;;;;;;;;;;4995540;28;20205;-88
2022/11/22 14:27:50;;;;;;;5.77;1.80;;;;;;;;;;5004570;28;20181;-88
2022/11/22 14:30:56;;;;;;;6.03;1.87;;;;;;;;;;4981630;28;20225;-88
2022/11/22 14:34:18;;;;;;;3.50;1.90;;;;;;;;;;4982145;28;20177;-88
2022/11/22 14:37:30;;;;;;;4.37;1.40;;;;;;;;;;4993053;28;20185;-88
2022/11/22 14:40:36;;;;;;;4.90;1.83;;;;;;;;;;4992259;28;20221;-88
2022/11/22 14:43:42;;;;;;;9.40;2.10;;;;;;;;;;4992633;28;20189;-88
2022/11/22 14:47:13;;;;;;;3.27;1.57;;;;;;;;;;4993172;28;20181;-88
2022/11/22 14:50:31;;;;;;;3.40;1.70;;;;;;;;;;4981686;28;20208;-87
2022/11/22 14:53:42;;;;;;;8.17;1.63;;;;;;;;;;4992410;28;20185;-88
2022/11/22 14:56:52;;;;;;;4.43;1.77;;;;;;;;;;4992930;28;20177;-90
2022/11/22 15:00:05;;;;;;;3.73;1.60;;;;;;;;;;4981446;28;20571;-88
2022/11/22 15:04:07;;;;;;;5.87;1.80;;;;;;;;;;4983191;28;20220;-89
2022/11/22 15:07:17;;;;;;;3.90;1.37;;;;;;;;;;4934087;29;20183;-87
2022/11/22 15:10:43;;;;;;;6.93;1.40;;;;;;;;;;4952690;28;20225;-87
2022/11/22 15:14:21;;;;;;;4.00;1.43;;;;;;;;;;4992443;28;20190;-87
2022/11/22 15:17:31;;;;;;;5.60;1.77;;;;;;;;;;5003493;28;20197;-88
2022/11/22 15:20:37;;;;;;;4.70;1.30;;;;;;;;;;4992286;28;20217;-88
2022/11/22 15:23:42;;;;;;;4.10;1.70;;;;;;;;;;4981148;28;20186;-88
2022/11/22 15:26:47;;;;;;;3.03;1.57;;;;;;;;;;4980803;28;20185;-88
2022/11/22 15:30:06;;;;;;;3.53;1.53;;;;;;;;;;4991839;28;20213;-88
2022/11/22 15:33:32;;;;;;;3.63;1.33;;;;;;;;;;4980752;28;20186;-88
2022/11/22 15:36:42;;;;;;;4.10;1.47;;;;;;;;;;4980916;28;20181;-88
2022/11/22 15:39:47;;;;;;;3.40;1.40;;;;;;;;;;4995922;28;20225;-88
2022/11/22 15:42:55;;;;;;;2.17;1.17;;;;;;;;;;4980434;28;20213;-88
2022/11/22 15:45:59;;;;;;;5.50;1.70;;;;;;;;;;4979572;28;20182;-89
2022/11/22 15:49:05;;;;;;;4.77;1.50;;;;;;;;;;4980607;28;20181;-88
2022/11/22 15:52:29;;;;;;;3.23;1.50;;;;;;;;;;4991484;28;20174;-88
2022/11/22 15:55:33;;;;;;;4.33;2.07;;;;;;;;;;4991842;28;20182;-88
2022/11/22 15:58:37;;;;;;;9.80;2.17;;;;;;;;;;4991583;28;20189;-88
2022/11/22 16:01:42;;;;;;;3.67;1.50;;;;;;;;;;4980596;28;20217;-88
2022/11/22 16:04:54;;;;;;;11.23;2.43;;;;;;;;;;4980281;28;20636;-88
2022/11/22 16:08:03;;;;;;;8.17;1.87;;;;;;;;;;4986695;28;20182;-88
2022/11/22 16:11:20;;;;;;;7.47;1.97;;;;;;;;;;4981651;28;20217;-87
2022/11/22 16:14:43;;;;;;;3.67;1.53;;;;;;;;;;4982082;28;20178;-88
2022/11/22 16:17:50;;;;;;;7.03;1.70;;;;;;;;;;4981908;28;20186;-88
2022/11/22 16:21:10;;;;;;;5.93;1.93;;;;;;;;;;4980792;28;20217;-88
2022/11/22 16:24:17;;;;;;;6.53;2.07;;;;;;;;;;4980754;28;20652;-87
2022/11/22 16:27:21;;;;;;;4.63;2.07;;;;;;;;;;4980734;28;20185;-88
2022/11/22 16:30:25;;;;;;;15.07;9.37;;;;;;;;;;4980249;28;20212;-88
2022/11/22 16:33:30;;;;;;;10.47;3.03;;;;;;;;;;4991704;28;20174;-88
2022/11/22 16:36:34;;;;;;;8.47;3.87;;;;;;;;;;4980343;28;20186;-88
2022/11/22 16:39:38;;;;;;;9.20;4.97;;;;;;;;;;4980187;28;20173;-88
2022/11/22 16:42:43;;;;;;;12.13;6.40;;;;;;;;;;4980421;28;20538;-87
2022/11/22 16:45:49;;;;;;;8.17;4.30;;;;;;;;;;4991175;28;20182;-88
2022/11/22 16:48:54;;;;;;;6.23;3.00;;;;;;;;;;4991359;28;20178;-88
2022/11/22 16:51:58;;;;;;;6.27;2.37;;;;;;;;;;4980075;28;20182;-88
2022/11/22 16:55:03;;;;;;;7.20;1.77;;;;;;;;;;4990788;28;20524;-89
2022/11/22 16:58:20;;;;;;;7.17;1.90;;;;;;;;;;4980386;28;20185;-88
2022/11/22 17:01:31;;;;;;;8.20;2.50;;;;;;;;;;4979775;28;20218;-88
2022/11/22 17:04:35;;;;;;;7.93;2.10;;;;;;;;;;4990894;28;20174;-89
2022/11/22 17:07:39;;;;;;;4.90;1.53;;;;;;;;;;4983207;28;20181;-89
2022/11/22 17:10:49;;;;;;;6.83;1.67;;;;;;;;;;4983156;28;20225;-88
2022/11/22 17:13:53;;;;;;;6.73;1.73;;;;;;;;;;4994484;28;20177;-88
2022/11/22 17:16:57;;;;;;;5.40;1.70;;;;;;;;;;4994650;28;20177;-88
2022/11/22 17:20:01;;;;;;;7.40;2.23;;;;;;;;;;4983958;28;20221;-89
2022/11/22 17:23:13;;;;;;;4.60;1.33;;;;;;;;;;4995741;28;20221;-90
2022/11/22 17:26:18;;;;;;;4.80;1.37;;;;;;;;;;4983167;28;20525;-89
2022/11/22 17:29:22;;;;;;;3.17;1.60;;;;;;;;;;4983342;28;20181;-88
2022/11/22 17:32:26;;;;;;;8.13;1.33;;;;;;;;;;4983284;28;20195;-88
2022/11/22 17:35:31;;;;;;;3.47;1.23;;;;;;;;;;4983479;28;20182;-88
2022/11/22 17:38:35;;;;;;;2.30;1.07;;;;;;;;;;4994438;28;20186;-88
2022/11/22 17:41:39;;;;;;;5.43;1.17;;;;;;;;;;4982965;28;20221;-89
2022/11/22 17:44:44;;;;;;;5.87;1.67;;;;;;;;;;4983160;28;20182;-89
2022/11/22 17:47:48;;;;;;;6.30;1.77;;;;;;;;;;4983214;28;20177;-89
2022/11/22 17:50:52;;;;;;;3.10;1.40;;;;;;;;;;4983424;28;20213;-88
2022/11/22 17:53:59;;;;;;;6.10;1.50;;;;;;;;;;4983699;28;20197;-89
2022/11/22 17:57:07;;;;;;;5.63;1.63;;;;;;;;;;4986115;28;20213;-92
2022/11/22 18:00:12;;;;;;;2.17;1.13;;;;;;;;;;5006492;28;20554;-88
2022/11/22 18:03:16;;;;;;;5.53;1.73;;;;;;;;;;4994188;28;20220;-89
2022/11/22 18:06:20;;;;;;;4.83;1.17;;;;;;;;;;5003056;28;20204;-89
2022/11/22 18:09:24;;;;;;;2.60;1.30;;;;;;;;;;5002547;28;20180;-89
2022/11/22 18:12:29;;;;;;;4.10;1.70;;;;;;;;;;5002246;28;20181;-89
2022/11/22 18:15:33;;;;;;;7.37;1.63;;;;;;;;;;5002509;28;20185;-88
2022/11/22 18:18:37;;;;;;;5.10;2.03;;;;;;;;;;5013242;28;20188;-88
2022/11/22 18:21:41;;;;;;;4.97;2.00;;;;;;;;;;5013545;28;20208;-88
2022/11/22 18:24:45;;;;;;;3.33;1.60;;;;;;;;;;5013182;28;20188;-88
2022/11/22 18:27:49;;;;;;;4.43;1.90;;;;;;;;;;5002094;28;20679;-88
2022/11/22 18:30:53;;;;;;;4.17;1.97;;;;;;;;;;5002364;28;20225;-88
2022/11/22 18:33:57;;;;;;;4.70;1.67;;;;;;;;;;5002908;28;20177;-88
2022/11/22 18:37:02;;;;;;;5.10;1.60;;;;;;;;;;5001860;28;20173;-88
2022/11/22 18:40:08;;;;;;;3.97;1.80;;;;;;;;;;5002051;28;20212;-88
2022/11/22 18:43:12;;;;;;;4.37;1.77;;;;;;;;;;5001941;28;20679;-88
2022/11/22 18:46:16;;;;;;;5.13;1.90;;;;;;;;;;5012453;28;20196;-88
2022/11/22 18:49:21;;;;;;;5.43;2.20;;;;;;;;;;4992381;28;20209;-87
2022/11/22 18:52:25;;;;;;;8.30;3.13;;;;;;;;;;5004321;28;20178;-88
2022/11/22 18:55:31;;;;;;;6.67;2.77;;;;;;;;;;5004167;28;20185;-89
2022/11/22 18:58:37;;;;;;;26.10;16.10;;;;;;;;;;4993097;28;20185;-88
2022/11/22 19:01:41;;;;;;;22.27;14.00;;;;;;;;;;4981379;28;20233;-89
2022/11/22 19:04:45;;;;;;;20.03;13.23;;;;;;;;;;5003681;28;20221;-88
2022/11/22 19:07:51;;;;;;;14.03;9.80;;;;;;;;;;4987339;28;20217;-88